• Join FlightAware (Why Join?)
  • Login
  • US Flag 
01:06AM EDT


 

Airport Tracker/Info


-or-


 

Live Flight TrackerFlight Track Log ✈ LXJ622 ✈ 14-May-2014 ✈ KPBI - KLAL

Flight Track Log - Related Links

Times and Time Zones

All times are in EDT time to prevent confusion due to time zone crossing. See the LXJ622 flight status page for this flight to view local times or setup timezone preferences in your user account.

Time Position Orientation Groundspeed Altitude Reporting Facility
EDT Latitude Longitude Course Direction KTS MPH feet Rate Location/Type
09:18AM 26.6911 -80.0103 299° West 220 253 4,300  Level Miami Center
09:19AM 26.7494 -80.0475 330° Northwest 257 296 8,300 2,760 Climbing Miami Center
09:20AM 26.7833 -80.1303 295° West 296 341 10,100 1,980 Climbing Miami Center
09:21AM 26.8256 -80.2400 293° West 382 440 12,400 1,860 Climbing Miami Center
09:22AM 26.8978 -80.3503 306° West 422 486 14,000 780 Climbing Miami Center
09:23AM 26.9686 -80.4561 307° West 405 466 14,000  Level Miami Center
09:24AM 26.8441 -80.2382 299° West  Level FlightAware Approximate
09:24AM 27.0353 -80.5561 307° West 385 443 14,000  Level Miami Center
09:26AM 27.0956 -80.6472 307° West 381 438 14,000  Level Miami Center
09:27AM 27.1622 -80.7481 307° West 380 437 14,000  Level Miami Center
09:28AM 27.2292 -80.8494 307° West 388 447 14,000  Level Miami Center
09:29AM 27.2972 -80.9528 307° West 388 447 14,000  Level Miami Center
09:30AM 27.3589 -81.0481 306° West 388 447 14,000 -300 Level Miami Center
09:31AM 27.4281 -81.1528 307° West 396 456 13,400 -780 Descending Miami Center
09:32AM 27.4975 -81.2583 307° West 398 458 12,400 -1,020 Descending Miami Center
09:33AM 27.5664 -81.3639 306° West 398 458 11,400 -960 Descending Miami Center
09:34AM 27.6247 -81.4539 306° West 398 458 10,500 -780 Descending Miami Center
09:35AM 27.6875 -81.5511 306° West 389 448 9,900 -1,080 Descending Miami Center
09:36AM 27.7400 -81.6308 307° West 321 369 8,400 -2,400 Descending Miami Center
09:37AM 27.7992 -81.7236 306° West 303 349 5,100 -2,220 Descending Miami Center
09:38AM 27.8450 -81.7947 306° West 284 327 3,900 -1,080 Descending Miami Center
09:39AM 27.8914 -81.8672 306° West 291 335 3,000 -540 Descending Miami Center
09:40AM 27.8969 -81.9442 275° West 243 280 2,900 -60 Descending Miami Center
09:41AM 27.8961 -82.0075 269° West 206 237 2,900  Level Miami Center
09:42AM 27.8961 -82.0650 270° West 187 215 2,900  Level Miami Center
09:43AM 27.8942 -82.1319 268° West 182 209 2,900 60 Level Miami Center
09:43AM 27.9000 -82.1667 281° West 178 205 3,000 60 Climbing Tampa TRACON
09:44AM 27.9000 -82.2167 270° West 174 200 3,000  Level Tampa TRACON
09:45AM 27.9000 -82.2500 270° West 182 209 3,000  Level Tampa TRACON
09:46AM 27.9667 -82.2667 348° North 171 197 3,000  Level Tampa TRACON
09:47AM 28.0000 -82.2667 360° North 164 189 3,000 -360 Level Tampa TRACON
09:48AM 28.0167 -82.2500 41° Northeast 139 160 2,300 -480 Descending Tampa TRACON
09:49AM 28.0000 -82.2000 111° Southeast 129 148 2,000 -180 Descending Tampa TRACON
09:50AM 27.9833 -82.1667 120° Southeast 134 154 2,000 -120 Level Tampa TRACON
09:51AM 27.9833 -82.1333 90° East 139 160 1,800 -480 Descending Tampa TRACON
09:52AM 27.9833 -82.0833 90° East 123 142 1,000 -720 Descending Tampa TRACON
09:53AM 27.9833 -82.0500 90° East 130 150 400 -720 Descending Tampa TRACON